createdAt,value
2019-03-26T00:04:26.639Z,3.20
2019-03-26T00:09:32.321Z,3.20
2019-03-26T00:14:36.606Z,3.10
2019-03-26T00:19:45.826Z,3.00
2019-03-26T00:24:55.235Z,3.10
2019-03-26T00:29:59.801Z,3.10
2019-03-26T00:35:04.220Z,2.90
2019-03-26T00:40:08.991Z,2.80
2019-03-26T00:45:13.413Z,2.80
2019-03-26T00:50:17.609Z,3.00
2019-03-26T00:55:23.221Z,3.00
2019-03-26T01:00:44.947Z,3.00
2019-03-26T01:05:49.257Z,3.20
2019-03-26T01:10:53.739Z,3.50
2019-03-26T01:15:57.930Z,3.80
2019-03-26T01:21:02.163Z,3.70
2019-03-26T01:26:06.396Z,3.90
2019-03-26T01:31:10.582Z,4.00
2019-03-26T01:36:14.814Z,4.10
2019-03-26T01:41:19.275Z,4.20
2019-03-26T01:46:23.488Z,4.40
2019-03-26T01:51:46.731Z,4.50
2019-03-26T01:56:51.109Z,4.50
2019-03-26T02:01:55.763Z,4.50
2019-03-26T02:07:00.240Z,4.70
2019-03-26T02:12:04.539Z,4.70
2019-03-26T02:17:08.882Z,4.70
2019-03-26T02:22:13.187Z,4.70
2019-03-26T02:27:17.457Z,4.90
2019-03-26T02:32:21.805Z,5.00
2019-03-26T02:37:26.096Z,4.90
2019-03-26T02:42:30.402Z,5.10
2019-03-26T02:47:34.660Z,5.10
2019-03-26T02:52:38.976Z,4.90
2019-03-26T02:57:43.239Z,4.90
2019-03-26T03:02:47.641Z,5.00
2019-03-26T03:07:51.879Z,5.00
2019-03-26T03:12:56.230Z,5.00
2019-03-26T03:18:00.749Z,5.10
2019-03-26T03:23:05.121Z,5.00
2019-03-26T03:28:09.403Z,5.10
2019-03-26T03:33:13.958Z,5.10
2019-03-26T03:38:18.279Z,4.80
2019-03-26T03:43:22.514Z,4.80
2019-03-26T03:48:26.893Z,4.90
2019-03-26T03:53:31.843Z,4.80
2019-03-26T03:58:39.434Z,4.80
2019-03-26T04:03:43.699Z,4.90
2019-03-26T04:08:48.037Z,4.90
2019-03-26T04:13:52.562Z,4.80
2019-03-26T04:18:56.806Z,4.80
2019-03-26T04:24:01.131Z,4.80
2019-03-26T04:29:05.437Z,5.00
2019-03-26T04:34:09.690Z,4.90
2019-03-26T04:39:13.942Z,4.90
2019-03-26T04:44:18.491Z,4.90
2019-03-26T04:49:22.827Z,4.90
2019-03-26T04:54:27.398Z,4.80
2019-03-26T04:59:31.692Z,5.10
2019-03-26T05:04:36.007Z,5.10
2019-03-26T05:09:40.253Z,5.00
2019-03-26T05:14:44.523Z,5.00
2019-03-26T05:19:49.030Z,5.00
2019-03-26T05:24:53.261Z,5.10
2019-03-26T05:29:57.548Z,5.20
2019-03-26T05:35:02.019Z,5.40
2019-03-26T05:40:08.833Z,5.40
2019-03-26T05:45:15.929Z,5.40
2019-03-26T05:50:20.165Z,5.50
2019-03-26T05:55:24.753Z,5.60
2019-03-26T06:00:29.052Z,5.70
2019-03-26T06:05:33.317Z,5.70
2019-03-26T06:10:37.549Z,5.80
2019-03-26T06:15:41.836Z,5.70
2019-03-26T06:20:46.428Z,5.90
2019-03-26T06:25:50.810Z,6.00
2019-03-26T06:30:55.429Z,6.30
2019-03-26T06:35:59.981Z,6.40
2019-03-26T06:41:04.665Z,6.30
2019-03-26T06:46:08.961Z,6.30
2019-03-26T06:51:14.338Z,6.30
2019-03-26T06:56:18.577Z,6.30
2019-03-26T07:01:22.912Z,6.30
2019-03-26T07:06:27.252Z,6.40
2019-03-26T07:11:31.487Z,6.50
2019-03-26T07:16:35.691Z,6.60
2019-03-26T07:21:49.081Z,6.80
2019-03-26T07:26:45.892Z,6.80
2019-03-26T07:31:50.229Z,7.20
2019-03-26T07:36:54.482Z,7.30
2019-03-26T07:41:58.929Z,6.90
2019-03-26T07:47:03.260Z,6.90
2019-03-26T07:52:07.714Z,6.60
2019-03-26T07:57:11.903Z,6.60
2019-03-26T08:02:16.296Z,6.60
2019-03-26T08:07:20.530Z,6.50
2019-03-26T08:12:24.748Z,6.50
2019-03-26T08:17:28.947Z,6.30
2019-03-26T08:22:33.529Z,6.30
2019-03-26T08:27:37.787Z,6.50
2019-03-26T08:32:42.279Z,6.50
2019-03-26T08:37:46.487Z,6.70
2019-03-26T08:42:50.693Z,6.80
2019-03-26T08:47:54.889Z,6.70
2019-03-26T08:52:59.114Z,6.60
2019-03-26T08:58:03.632Z,6.50
2019-03-26T09:03:07.934Z,6.60
2019-03-26T09:08:24.459Z,6.60
2019-03-26T09:13:18.076Z,6.70
2019-03-26T09:18:22.853Z,6.70
2019-03-26T09:23:27.079Z,6.60
2019-03-26T09:28:31.288Z,6.70
2019-03-26T09:33:35.789Z,6.80
2019-03-26T09:38:40.091Z,7.10
2019-03-26T09:43:44.302Z,7.30
2019-03-26T09:48:49.150Z,6.90
2019-03-26T09:53:53.350Z,6.70
2019-03-26T09:58:57.539Z,6.80
2019-03-26T10:04:02.091Z,6.80
2019-03-26T10:09:07.770Z,6.90
2019-03-26T10:14:12.344Z,7.30
2019-03-26T10:19:17.143Z,7.70
2019-03-26T10:24:22.009Z,8.10
2019-03-26T10:29:30.388Z,8.20
2019-03-26T10:34:32.433Z,8.50
2019-03-26T10:39:37.110Z,8.40
2019-03-26T10:44:41.336Z,8.80
2019-03-26T10:49:45.970Z,8.80
2019-03-26T10:54:50.152Z,9.10
2019-03-26T10:59:54.358Z,9.50
2019-03-26T11:04:58.566Z,9.80
2019-03-26T11:10:02.881Z,9.40
2019-03-26T11:15:07.865Z,9.50
2019-03-26T11:20:12.871Z,9.40
2019-03-26T11:25:17.649Z,9.80
2019-03-26T11:30:21.862Z,10.40
2019-03-26T11:35:26.101Z,9.90
2019-03-26T11:40:30.537Z,9.40
2019-03-26T11:45:53.766Z,9.90
2019-03-26T11:50:58.585Z,9.70
2019-03-26T11:56:03.629Z,9.70
2019-03-26T12:01:08.023Z,9.80
2019-03-26T12:06:12.250Z,9.70
2019-03-26T12:11:16.490Z,9.70
2019-03-26T12:16:20.685Z,9.80
2019-03-26T12:21:24.901Z,10.50
2019-03-26T12:26:29.187Z,10.60
2019-03-26T12:31:33.690Z,11.20
2019-03-26T12:36:40.068Z,10.70
2019-03-26T12:41:43.925Z,11.00
2019-03-26T12:46:48.459Z,12.30
2019-03-26T12:51:52.677Z,11.20
2019-03-26T12:56:56.880Z,11.00
2019-03-26T13:02:01.081Z,9.90
2019-03-26T13:07:05.294Z,9.40
2019-03-26T13:12:09.573Z,9.30
2019-03-26T13:17:14.079Z,9.60
2019-03-26T13:22:18.282Z,9.20
2019-03-26T13:27:22.559Z,9.00
2019-03-26T13:32:26.782Z,8.90
2019-03-26T13:37:31.000Z,8.70
2019-03-26T13:42:35.265Z,8.90
2019-03-26T13:47:39.502Z,9.10
2019-03-26T13:52:43.698Z,9.20
2019-03-26T13:57:47.929Z,9.30
2019-03-26T14:02:52.224Z,9.50
2019-03-26T14:07:56.653Z,9.30
2019-03-26T14:13:00.865Z,9.10
2019-03-26T14:18:05.643Z,9.10
2019-03-26T14:23:10.175Z,9.20
2019-03-26T14:28:14.514Z,9.10
2019-03-26T14:33:18.717Z,9.30
2019-03-26T14:38:23.700Z,9.40
2019-03-26T14:43:29.319Z,9.30
2019-03-26T14:48:33.514Z,9.30
2019-03-26T14:53:37.913Z,9.30
2019-03-26T14:58:42.229Z,9.20
2019-03-26T15:03:46.802Z,9.10
2019-03-26T15:08:51.131Z,9.30
2019-03-26T15:13:55.483Z,9.30
2019-03-26T15:19:00.018Z,9.40
2019-03-26T15:24:04.243Z,9.20
2019-03-26T15:29:08.929Z,9.10
2019-03-26T15:34:13.250Z,8.90
2019-03-26T15:39:17.438Z,8.80
2019-03-26T15:44:21.624Z,8.90
2019-03-26T15:49:25.832Z,8.90
2019-03-26T15:54:30.033Z,8.90
2019-03-26T15:59:34.231Z,8.90
2019-03-26T16:04:38.562Z,8.80
2019-03-26T16:09:42.810Z,8.80
2019-03-26T16:14:47.000Z,8.80
2019-03-26T16:19:51.231Z,8.70
2019-03-26T16:24:55.685Z,8.60
2019-03-26T16:29:59.899Z,8.60
2019-03-26T16:35:04.600Z,8.60
2019-03-26T16:40:08.955Z,8.60
2019-03-26T16:45:13.330Z,8.60
2019-03-26T16:50:17.690Z,8.60
2019-03-26T16:55:21.902Z,8.70
2019-03-26T17:00:33.255Z,8.60
2019-03-26T17:05:37.466Z,8.50
2019-03-26T17:10:41.673Z,8.40
2019-03-26T17:15:45.898Z,8.30
2019-03-26T17:20:50.184Z,8.20
2019-03-26T17:25:54.702Z,8.20
2019-03-26T17:30:58.902Z,8.00
2019-03-26T17:36:03.107Z,7.50
2019-03-26T17:41:07.628Z,7.20
2019-03-26T17:46:14.931Z,7.00
2019-03-26T17:51:19.558Z,7.10
2019-03-26T17:56:24.220Z,7.20
2019-03-26T18:01:28.937Z,7.20
2019-03-26T18:06:33.189Z,7.30
2019-03-26T18:11:37.394Z,7.20
2019-03-26T18:16:41.870Z,7.20
2019-03-26T18:21:51.691Z,7.20
2019-03-26T18:26:52.344Z,7.20
2019-03-26T18:31:56.744Z,7.30
2019-03-26T18:37:07.438Z,7.30
2019-03-26T18:42:11.661Z,7.20
2019-03-26T18:47:15.868Z,7.20
2019-03-26T18:52:21.449Z,7.30
2019-03-26T18:57:26.500Z,7.20
2019-03-26T19:02:30.722Z,7.30
2019-03-26T19:07:34.958Z,7.20
2019-03-26T19:12:39.178Z,7.20
2019-03-26T19:17:43.430Z,7.10
2019-03-26T19:22:47.638Z,7.10
2019-03-26T19:27:51.883Z,7.00
2019-03-26T19:32:57.603Z,7.00
2019-03-26T19:38:02.439Z,6.80
2019-03-26T19:43:11.351Z,6.90
2019-03-26T19:48:13.097Z,6.80
2019-03-26T19:53:17.621Z,6.80
2019-03-26T19:58:21.953Z,6.90
2019-03-26T20:03:26.213Z,7.00
2019-03-26T20:08:30.441Z,7.00
2019-03-26T20:13:34.850Z,7.00
2019-03-26T20:18:39.223Z,7.00
2019-03-26T20:23:43.525Z,7.00
2019-03-26T20:28:47.790Z,6.90
2019-03-26T20:33:52.334Z,7.00
2019-03-26T20:38:56.670Z,7.00
2019-03-26T20:44:00.974Z,7.00
2019-03-26T20:49:05.341Z,7.00
2019-03-26T20:54:09.865Z,7.10
2019-03-26T20:59:14.406Z,7.10
2019-03-26T21:04:18.668Z,7.00
2019-03-26T21:09:22.926Z,7.00
2019-03-26T21:14:27.439Z,7.00
2019-03-26T21:19:31.729Z,7.00
2019-03-26T21:24:36.061Z,6.90
2019-03-26T21:29:40.318Z,6.90
2019-03-26T21:34:44.660Z,7.10
2019-03-26T21:39:48.889Z,7.10
2019-03-26T21:44:53.143Z,7.10
2019-03-26T21:49:57.387Z,7.10
2019-03-26T21:55:01.649Z,7.10
2019-03-26T22:00:07.652Z,7.10
2019-03-26T22:05:12.254Z,7.00
2019-03-26T22:10:16.757Z,7.10
2019-03-26T22:15:21.074Z,7.00
2019-03-26T22:20:25.574Z,7.00
2019-03-26T22:25:29.805Z,7.00
2019-03-26T22:30:34.029Z,6.90
2019-03-26T22:35:38.496Z,6.90
2019-03-26T22:40:42.857Z,6.90
2019-03-26T22:45:47.063Z,7.00
2019-03-26T22:50:51.309Z,7.00
2019-03-26T22:55:55.568Z,7.00
2019-03-26T23:01:00.067Z,7.00
2019-03-26T23:06:04.322Z,7.00
2019-03-26T23:11:08.623Z,7.00
2019-03-26T23:16:12.947Z,6.90
2019-03-26T23:21:19.726Z,6.90
2019-03-26T23:26:23.514Z,6.90
2019-03-26T23:31:27.749Z,6.80
2019-03-26T23:36:31.980Z,6.80
2019-03-26T23:41:39.529Z,6.70
2019-03-26T23:46:42.793Z,6.70
2019-03-26T23:51:47.337Z,6.70
2019-03-26T23:56:51.555Z,6.70
